.
WxDataArchive / Data Records for 2015-02-04
2015-02-03 February 2015 2015-02-05

Data Records for Wednesday, 04 February 2015

Time	Temp	Chill	HIndex	Humid	Dewpt	 Wind 	HiWind	WindDir	Rain 	Barom
-----	----	-----	------	-----	-----	------	------	-------	-----	-----
00:00	30.1	30.1	30.1	84	25.9	0	2	248	0.00	30.051 
00:05	30.3	30.3	30.3	84	26.1	0	1	248	0.00	30.051 
00:10	30.6	30.6	30.6	83	26.1	0	2	248	0.00	30.051 
00:15	30.7	30.7	30.7	82	25.9	0	1	248	0.00	30.046 
00:20	30.7	30.7	30.7	81	25.6	0	1	248	0.00	30.046 
00:25	30.9	30.9	30.9	81	25.8	0	2	248	0.00	30.046 
00:30	31.0	31.0	31.0	80	25.6	0	2	248	0.00	30.039 
00:35	31.2	31.2	31.2	80	25.8	0	2	248	0.00	30.039 
00:40	31.2	31.2	31.2	80	25.8	0	2	248	0.00	30.039 
00:45	31.2	31.2	31.2	79	25.5	0	3	248	0.00	30.042 
00:50	31.3	31.3	31.3	79	25.6	0	3	248	0.00	30.042 
00:55	31.3	31.3	31.3	79	25.6	0	2	248	0.00	30.042 
01:00	31.5	31.5	31.5	79	25.8	0	4	248	0.00	30.032 
01:05	31.5	31.5	31.5	79	25.8	0	3	248	0.00	30.032 
01:10	31.5	31.5	31.5	78	25.4	1	3	248	0.00	30.032 
01:15	31.6	31.6	31.6	78	25.5	0	2	225	0.00	30.023 
01:20	31.6	31.6	31.6	78	25.5	0	1	225	0.00	30.023 
01:25	31.6	31.6	31.6	78	25.5	0	1	225	0.00	30.023 
01:30	31.6	31.6	31.6	78	25.5	0	3	225	0.00	30.013 
01:35	31.6	31.6	31.6	78	25.5	0	2	292	0.00	30.013 
01:40	31.6	31.6	31.6	78	25.5	0	2	292	0.00	30.013 
01:45	31.8	31.8	31.8	78	25.7	1	3	315	0.00	30.012 
01:50	31.8	31.8	31.8	78	25.7	1	3	315	0.00	30.012 
01:55	31.8	31.8	31.8	78	25.7	0	2	270	0.00	30.012 
02:00	31.8	31.8	31.8	79	26.0	0	2	270	0.00	30.008 
02:05	31.8	31.8	31.8	79	26.0	0	3	270	0.00	30.008 
02:10	31.8	31.8	31.8	79	26.0	0	2	270	0.00	30.008 
02:15	31.8	31.8	31.8	79	26.0	0	3	270	0.00	30.003 
02:20	31.9	31.9	31.9	79	26.1	0	3	270	0.00	30.003 
02:25	31.9	31.9	31.9	79	26.1	0	2	270	0.00	30.003 
02:30	32.1	32.1	32.1	79	26.3	0	2	270	0.00	29.999 
02:35	32.1	32.1	32.1	79	26.3	0	2	270	0.00	29.999 
02:40	32.2	32.2	32.2	79	26.4	1	3	270	0.00	29.999 
02:45	32.4	32.4	32.4	78	26.3	1	3	270	0.00	29.997 
02:50	32.5	32.5	32.5	78	26.4	0	2	270	0.00	29.997 
02:55	32.5	32.5	32.5	78	26.4	1	4	248	0.00	29.997 
03:00	32.7	32.7	32.7	78	26.6	1	4	248	0.00	29.994 
03:05	32.8	32.8	32.8	78	26.7	1	4	248	0.00	29.994 
03:10	32.9	32.9	32.9	78	26.8	0	2	248	0.00	29.994 
03:15	32.9	32.9	32.9	77	26.5	1	3	248	0.00	29.989 
03:20	32.9	32.9	32.9	78	26.8	1	4	225	0.00	29.989 
03:25	32.9	32.9	32.9	78	26.8	1	3	225	0.00	29.989 
03:30	33.1	33.1	33.1	78	27.0	1	5	248	0.00	29.981 
03:35	33.1	33.1	33.1	78	27.0	1	4	248	0.00	29.981 
03:40	33.1	33.1	33.1	78	27.0	1	3	248	0.00	29.981 
03:45	33.1	33.1	33.1	78	27.0	1	4	248	0.00	29.979 
03:50	33.1	33.1	33.1	78	27.0	0	2	248	0.00	29.979 
03:55	33.1	33.1	33.1	79	27.3	1	3	248	0.00	29.979 
04:00	33.1	33.1	33.1	79	27.3	1	4	248	0.00	29.978 
04:05	33.1	33.1	33.1	79	27.3	1	3	248	0.00	29.978 
04:10	33.1	33.1	33.1	79	27.3	1	4	248	0.00	29.978 
04:15	33.1	33.1	33.1	79	27.3	1	4	248	0.00	29.976 
04:20	33.1	33.1	33.1	79	27.3	1	4	248	0.00	29.976 
04:25	33.1	33.1	33.1	79	27.3	1	4	248	0.00	29.976 
04:30	33.1	33.1	33.1	79	27.3	1	3	248	0.00	29.969 
04:35	33.1	33.1	33.1	80	27.6	1	3	248	0.00	29.969 
04:40	33.1	33.1	33.1	80	27.6	1	4	248	0.00	29.969 
04:45	33.2	33.2	33.2	80	27.7	1	4	248	0.00	29.965 
04:50	33.2	33.2	33.2	80	27.7	1	3	248	0.00	29.965 
04:55	33.4	33.4	33.4	80	27.9	1	4	270	0.00	29.965 
05:00	33.4	33.4	33.4	80	27.9	1	6	270	0.00	29.970 
05:05	33.4	33.4	33.4	80	27.9	1	3	248	0.00	29.970 
05:10	33.4	33.4	33.4	80	27.9	1	4	248	0.00	29.970 
05:15	33.4	33.4	33.4	80	27.9	1	2	248	0.00	29.971 
05:20	33.4	33.4	33.4	80	27.9	1	3	248	0.00	29.971 
05:25	33.4	33.4	33.4	80	27.9	1	4	248	0.00	29.971 
05:30	33.4	33.4	33.4	81	28.2	1	2	248	0.00	29.966 
05:35	33.4	33.4	33.4	81	28.2	1	3	248	0.00	29.966 
05:40	33.4	33.4	33.4	81	28.2	0	3	248	0.00	29.966 
05:45	33.4	33.4	33.4	81	28.2	1	4	248	0.00	29.968 
05:50	33.4	33.4	33.4	81	28.2	1	4	270	0.00	29.968 
05:55	33.2	33.2	33.2	81	28.0	1	3	292	0.00	29.968 
06:00	33.2	33.2	33.2	81	28.0	1	3	292	0.00	29.973 
06:05	33.2	33.2	33.2	81	28.0	1	3	292	0.00	29.973 
06:10	33.1	33.1	33.1	81	27.9	1	3	292	0.00	29.973 
06:15	33.1	33.1	33.1	81	27.9	1	3	292	0.00	29.981 
06:20	33.1	33.1	33.1	81	27.9	0	2	292	0.00	29.981 
06:25	32.9	32.9	32.9	81	27.7	1	4	292	0.00	29.981 
06:30	32.9	32.9	32.9	81	27.7	1	4	292	0.00	29.984 
06:35	32.9	32.9	32.9	81	27.7	1	3	292	0.00	29.984 
06:40	32.8	32.8	32.8	81	27.6	1	3	292	0.00	29.984 
06:45	32.8	32.8	32.8	81	27.6	1	3	292	0.00	29.996 
06:50	32.8	32.8	32.8	81	27.6	1	4	292	0.00	29.996 
06:55	32.8	32.8	32.8	81	27.6	1	3	292	0.00	29.996 
07:00	32.7	32.7	32.7	81	27.5	1	3	248	0.00	29.982 
07:05	32.7	32.7	32.7	82	27.8	1	3	248	0.00	29.982 
07:10	32.5	32.5	32.5	82	27.6	1	3	248	0.00	29.982 
07:15	32.5	32.5	32.5	82	27.6	0	2	248	0.00	29.992 
07:20	32.5	32.5	32.5	82	27.6	1	3	248	0.00	29.992 
07:25	32.5	32.5	32.5	82	27.6	1	3	248	0.00	29.992 
07:30	32.5	32.5	32.5	82	27.6	1	2	248	0.00	29.983 
07:35	32.4	32.4	32.4	82	27.5	1	3	248	0.00	29.983 
07:40	32.4	32.4	32.4	82	27.5	1	4	248	0.00	29.983 
07:45	32.4	32.4	32.4	82	27.5	1	4	248	0.00	29.991 
07:50	32.4	32.4	32.4	82	27.5	1	3	248	0.00	29.991 
07:55	32.4	32.4	32.4	82	27.5	1	4	248	0.00	29.991 
08:00	32.4	32.4	32.4	82	27.5	1	2	248	0.00	29.997 
08:05	32.4	32.4	32.4	82	27.5	1	3	248	0.00	29.997 
08:10	32.4	32.4	32.4	82	27.5	1	3	248	0.00	29.997 
08:15	32.5	32.5	32.5	82	27.6	1	3	248	0.00	29.997 
08:20	32.5	32.5	32.5	82	27.6	1	3	248	0.00	29.997 
08:25	32.5	32.5	32.5	82	27.6	1	5	248	0.00	29.997 
08:30	32.5	32.5	32.5	82	27.6	1	2	248	0.00	29.999 
08:35	32.7	32.7	32.7	82	27.8	1	3	248	0.00	29.999 
08:40	32.7	32.7	32.7	82	27.8	1	3	248	0.00	29.999 
08:45	32.8	32.8	32.8	82	27.9	1	3	248	0.00	30.018 
08:50	32.8	32.8	32.8	82	27.9	0	2	248	0.00	30.018 
08:55	32.9	32.9	32.9	82	28.0	1	2	248	0.00	30.018 
09:00	33.1	33.1	33.1	82	28.2	0	2	248	0.00	30.010 
09:05	33.1	33.1	33.1	82	28.2	1	3	248	0.00	30.010 
09:10	33.1	33.1	33.1	82	28.2	0	3	248	0.00	30.010 
09:15	33.2	33.2	33.2	82	28.3	1	3	248	0.00	30.011 
09:20	33.1	33.1	33.1	82	28.2	1	4	248	0.00	30.011 
09:25	33.2	33.2	33.2	82	28.3	1	3	248	0.00	30.011 
09:30	33.2	33.2	33.2	82	28.3	1	4	248	0.00	30.012 
09:35	33.2	33.2	33.2	82	28.3	0	2	248	0.00	30.012 
09:40	33.2	33.2	33.2	82	28.3	1	3	248	0.00	30.012 
09:45	33.2	33.2	33.2	82	28.3	1	3	248	0.00	30.016 
09:50	33.1	33.1	33.1	82	28.2	1	3	248	0.00	30.016 
09:55	33.2	33.2	33.2	82	28.3	0	2	270	0.00	30.016 
10:00	33.2	33.2	33.2	82	28.3	1	3	270	0.00	30.022 
10:05	33.2	33.2	33.2	82	28.3	0	2	270	0.00	30.022 
10:10	33.4	33.4	33.4	83	28.8	0	1	270	0.00	30.022 
10:15	33.4	33.4	33.4	83	28.8	1	4	248	0.00	30.020 
10:20	33.4	33.4	33.4	83	28.8	1	3	248	0.00	30.020 
10:25	33.5	33.5	33.5	83	28.9	1	2	248	0.00	30.020 
10:30	33.4	33.4	33.4	83	28.8	1	2	248	0.00	30.038 
10:35	33.4	33.4	33.4	83	28.8	1	3	248	0.00	30.038 
10:40	33.4	33.4	33.4	83	28.8	1	3	248	0.00	30.038 
10:45	33.2	33.2	33.2	83	28.6	1	4	248	0.00	30.052 
10:50	33.2	33.2	33.2	83	28.6	1	3	248	0.00	30.052 
10:55	33.2	33.2	33.2	84	28.9	1	3	248	0.00	30.052 
11:00	33.1	33.1	33.1	84	28.8	1	3	248	0.00	30.057 
11:05	33.1	33.1	33.1	84	28.8	1	3	248	0.00	30.057 
11:10	33.1	33.1	33.1	84	28.8	1	2	248	0.00	30.057 
11:15	32.9	32.9	32.9	85	28.9	1	4	248	0.00	30.053 
11:20	32.8	32.8	32.8	86	29.1	1	4	248	0.00	30.053 
11:25	32.8	32.8	32.8	87	29.4	1	3	248	0.00	30.053 
11:30	32.9	32.9	32.9	88	29.7	1	3	248	0.00	30.052 
11:35	33.1	33.1	33.1	88	29.9	1	3	248	0.00	30.052 
11:40	32.9	32.9	32.9	88	29.7	1	4	248	0.00	30.052 
11:45	32.9	32.9	32.9	88	29.7	0	2	248	0.00	30.040 
11:50	32.8	32.8	32.8	88	29.6	1	3	248	0.00	30.040 
11:55	32.7	32.7	32.7	88	29.5	1	3	248	0.00	30.040 
12:00	32.4	32.4	32.4	88	29.3	1	5	270	0.00	30.039 
12:05	31.9	31.9	31.9	88	28.8	1	5	315	0.00	30.039 
12:10	31.3	31.3	31.3	88	28.2	2	6	292	0.00	30.039 
12:15	31.0	31.0	31.0	88	27.9	2	6	0	0.00	30.036 
12:20	30.7	30.7	30.7	88	27.6	2	5	338	0.00	30.036 
12:25	30.6	30.6	30.6	89	27.8	1	4	315	0.00	30.036 
12:30	30.6	30.6	30.6	89	27.8	1	4	315	0.00	30.028 
12:35	30.7	30.7	30.7	89	27.8	1	4	315	0.00	30.028 
12:40	30.6	30.6	30.6	89	27.8	1	4	270	0.00	30.028 
12:45	30.7	30.7	30.7	89	27.8	1	3	270	0.00	30.012 
12:50	30.9	30.9	30.9	89	28.0	1	4	270	0.00	30.012 
12:55	30.7	30.7	30.7	89	27.8	1	3	248	0.00	30.012 
13:00	30.6	30.6	30.6	89	27.8	1	3	248	0.00	30.011 
13:05	30.6	30.6	30.6	89	27.8	1	3	248	0.00	30.011 
13:10	30.6	30.6	30.6	89	27.8	1	4	315	0.00	30.011 
13:15	30.6	30.6	30.6	89	27.8	1	4	315	0.00	30.020 
13:20	30.4	30.4	30.4	89	27.6	0	3	315	0.00	30.020 
13:25	30.4	30.4	30.4	89	27.6	1	3	315	0.00	30.020 
13:30	30.1	30.1	30.1	89	27.3	1	3	315	0.00	30.023 
13:35	29.8	29.8	29.8	89	27.0	1	3	315	0.00	30.023 
13:40	30.0	30.0	30.0	90	27.4	0	2	315	0.00	30.023 
13:45	29.8	29.8	29.8	90	27.2	1	5	315	0.00	30.026 
13:50	29.7	29.7	29.7	90	27.1	1	4	338	0.00	30.026 
13:55	29.7	29.7	29.7	90	27.1	1	3	315	0.00	30.026 
14:00	29.7	29.7	29.7	90	27.1	1	2	315	0.00	30.026 
14:05	29.8	29.8	29.8	91	27.5	0	2	315	0.00	30.026 
14:10	29.8	29.8	29.8	91	27.5	1	3	315	0.00	30.026 
14:15	29.7	29.7	29.7	91	27.4	1	2	315	0.00	30.028 
14:20	29.5	29.5	29.5	91	27.2	1	3	315	0.00	30.028 
14:25	29.4	29.4	29.4	91	27.1	1	3	338	0.00	30.028 
14:30	29.3	29.3	29.3	91	27.0	1	3	292	0.00	30.034 
14:35	29.4	29.4	29.4	91	27.1	0	1	292	0.00	30.034 
14:40	29.4	29.4	29.4	91	27.1	0	1	292	0.00	30.034 
14:45	29.5	29.5	29.5	91	27.2	0	1	292	0.00	30.029 
14:50	29.5	29.5	29.5	91	27.2	0	2	292	0.00	30.029 
14:55	29.5	29.5	29.5	91	27.2	0	1	292	0.00	30.029 
15:00	29.5	29.5	29.5	91	27.2	0	1	292	0.00	30.025 
15:05	29.4	29.4	29.4	91	27.1	0	2	292	0.00	30.025 
15:10	29.4	29.4	29.4	91	27.1	0	1	292	0.00	30.025 
15:15	29.3	29.3	29.3	91	27.0	0	1	292	0.00	30.028 
15:20	28.8	28.8	28.8	91	26.5	1	3	292	0.00	30.028 
15:25	28.5	28.5	28.5	91	26.2	0	2	315	0.00	30.028 
15:30	28.4	28.4	28.4	91	26.1	0	1	315	0.00	30.032 
15:35	28.4	28.4	28.4	91	26.1	0	2	315	0.00	30.032 
15:40	28.4	28.4	28.4	91	26.1	0	1	315	0.00	30.032 
15:45	28.1	28.1	28.1	91	25.8	0	2	315	0.00	30.041 
15:50	27.8	27.8	27.8	91	25.5	1	3	315	0.00	30.041 
15:55	27.6	27.6	27.6	91	25.3	0	3	292	0.00	30.041 
16:00	27.6	27.6	27.6	91	25.3	0	2	292	0.00	30.044 
16:05	27.5	27.5	27.5	91	25.2	0	3	315	0.00	30.044 
16:10	27.5	27.5	27.5	91	25.2	0	2	315	0.00	30.044 
16:15	27.5	27.5	27.5	91	25.2	0	2	315	0.00	30.060 
16:20	27.5	27.5	27.5	91	25.2	0	3	315	0.00	30.060 
16:25	27.5	27.5	27.5	91	25.2	0	3	315	0.00	30.060 
16:30	27.3	27.3	27.3	91	25.0	0	2	315	0.00	30.075 
16:35	27.2	27.2	27.2	91	24.9	0	2	315	0.00	30.075 
16:40	27.0	27.0	27.0	91	24.7	0	3	292	0.00	30.075 
16:45	26.9	26.9	26.9	91	24.6	0	1	292	0.00	30.075 
16:50	26.9	26.9	26.9	91	24.6	0	2	292	0.00	30.075 
16:55	26.9	26.9	26.9	91	24.6	1	3	292	0.00	30.075 
17:00	26.7	26.7	26.7	91	24.4	0	2	292	0.00	30.078 
17:05	26.6	26.6	26.6	91	24.3	0	2	292	0.00	30.078 
17:10	26.4	26.4	26.4	91	24.1	0	2	292	0.00	30.078 
17:15	26.4	26.4	26.4	91	24.1	0	2	292	0.00	30.089 
17:20	26.3	26.3	26.3	91	24.0	0	2	292	0.00	30.089 
17:25	26.1	26.1	26.1	91	23.8	0	1	292	0.00	30.089 
17:30	26.0	26.0	26.0	91	23.7	0	3	292	0.00	30.097 
17:35	25.8	25.8	25.8	91	23.5	0	2	292	0.00	30.097 
17:40	25.8	25.8	25.8	91	23.5	0	3	292	0.00	30.097 
17:45	25.6	25.6	25.6	91	23.3	0	2	292	0.00	30.096 
17:50	25.4	25.4	25.4	91	23.1	0	2	338	0.01	30.096 
17:55	25.3	25.3	25.3	91	23.0	0	2	292	0.00	30.096 
18:00	25.1	25.1	25.1	91	22.9	0	2	315	0.00	30.096 
18:05	25.0	25.0	25.0	91	22.8	0	2	315	0.00	30.096 
18:10	24.7	24.7	24.7	91	22.5	2	4	270	0.00	30.096 
18:15	24.5	24.5	24.5	91	22.3	1	4	270	0.00	30.105 
18:20	24.4	24.4	24.4	91	22.2	1	5	270	0.00	30.105 
18:25	24.2	24.2	24.2	91	22.0	0	2	270	0.00	30.105 
18:30	24.1	24.1	24.1	91	21.9	0	2	315	0.00	30.114 
18:35	23.9	23.9	23.9	91	21.7	1	4	315	0.00	30.114 
18:40	23.8	23.8	23.8	90	21.3	1	3	270	0.00	30.114 
18:45	23.6	23.6	23.6	90	21.1	1	3	292	0.00	30.130 
18:50	23.6	23.6	23.6	90	21.1	0	2	0	0.00	30.130 
18:55	23.6	23.6	23.6	90	21.1	1	3	315	0.00	30.130 
19:00	23.6	23.6	23.6	90	21.1	0	3	315	0.00	30.141 
19:05	23.6	23.6	23.6	90	21.1	0	1	315	0.00	30.141 
19:10	23.5	23.5	23.5	90	21.0	1	4	315	0.00	30.141 
19:15	23.2	23.2	23.2	90	20.7	1	4	315	0.00	30.147 
19:20	23.0	23.0	23.0	89	20.3	1	4	270	0.00	30.147 
19:25	22.9	22.9	22.9	89	20.2	0	1	270	0.00	30.147 
19:30	22.9	22.9	22.9	89	20.2	0	3	270	0.00	30.158 
19:35	22.9	22.9	22.9	89	20.2	0	1	315	0.00	30.158 
19:40	22.7	22.7	22.7	88	19.7	1	3	338	0.00	30.158 
19:45	22.7	22.7	22.7	88	19.7	1	4	270	0.00	30.172 
19:50	22.5	22.5	22.5	87	19.2	1	3	315	0.00	30.172 
19:55	22.2	22.2	22.2	86	18.7	1	4	292	0.00	30.172 
20:00	22.2	22.2	22.2	85	18.4	1	3	315	0.00	30.174 
20:05	22.1	22.1	22.1	84	18.0	2	5	292	0.00	30.174 
20:10	22.1	22.1	22.1	84	18.0	1	3	315	0.00	30.174 
20:15	21.9	21.9	21.9	83	17.5	1	4	292	0.00	30.176 
20:20	21.9	21.9	21.9	82	17.3	1	4	338	0.00	30.176 
20:25	21.8	21.8	21.8	82	17.2	1	4	270	0.00	30.176 
20:30	21.6	21.6	21.6	81	16.7	1	6	338	0.00	30.188 
20:35	21.4	21.4	21.4	80	16.2	1	5	338	0.00	30.188 
20:40	21.3	21.3	21.3	80	16.1	1	5	270	0.00	30.188 
20:45	21.3	21.3	21.3	80	16.1	1	3	270	0.00	30.198 
20:50	21.3	21.3	21.3	80	16.1	2	5	292	0.00	30.198 
20:55	21.1	21.1	21.1	79	15.6	1	5	292	0.00	30.198 
21:00	21.1	21.1	21.1	78	15.3	1	6	338	0.00	30.204 
21:05	21.0	21.0	21.0	77	14.9	1	5	315	0.00	30.204 
21:10	20.6	20.6	20.6	76	14.3	2	6	338	0.00	30.204 
21:15	20.5	20.5	20.5	75	13.9	2	5	292	0.00	30.208 
21:20	20.3	20.3	20.3	74	13.4	1	4	292	0.00	30.208 
21:25	20.0	20.0	20.0	74	13.1	1	4	292	0.00	30.208 
21:30	19.9	19.9	19.9	73	12.7	1	4	315	0.00	30.213 
21:35	19.7	19.7	19.7	73	12.5	1	4	292	0.00	30.213 
21:40	19.5	19.5	19.5	74	12.6	1	4	338	0.00	30.213 
21:45	19.2	19.2	19.2	74	12.3	0	3	315	0.00	30.220 
21:50	19.2	19.2	19.2	74	12.3	0	3	0	0.00	30.220 
21:55	19.1	19.1	19.1	73	11.9	1	4	0	0.00	30.220 
22:00	19.1	19.1	19.1	73	11.9	0	2	315	0.00	30.225 
22:05	19.1	19.1	19.1	73	11.9	0	3	315	0.00	30.225 
22:10	19.1	19.1	19.1	73	11.9	0	2	315	0.00	30.225 
22:15	19.1	19.1	19.1	73	11.9	0	2	315	0.00	30.229 
22:20	19.2	19.2	19.2	73	12.0	1	4	315	0.00	30.229 
22:25	19.2	19.2	19.2	73	12.0	1	3	0	0.00	30.229 
22:30	19.2	19.2	19.2	73	12.0	0	3	315	0.00	30.240 
22:35	19.2	19.2	19.2	73	12.0	1	3	292	0.00	30.240 
22:40	19.1	19.1	19.1	73	11.9	0	2	270	0.00	30.240 
22:45	18.9	18.9	18.9	74	12.0	1	4	270	0.00	30.244 
22:50	18.9	18.9	18.9	75	12.3	1	6	292	0.00	30.244 
22:55	18.8	18.8	18.8	76	12.5	1	3	292	0.00	30.244 
23:00	18.6	18.6	18.6	77	12.6	1	3	292	0.00	30.252 
23:05	18.3	18.3	18.3	77	12.3	1	4	292	0.00	30.252 
23:10	18.1	18.1	18.1	77	12.1	0	3	338	0.00	30.252 
23:15	18.0	18.0	18.0	77	12.0	0	2	270	0.00	30.258 
23:20	17.7	17.7	17.7	77	11.7	0	2	270	0.00	30.258 
23:25	17.5	17.5	17.5	78	11.8	0	3	270	0.00	30.258 
23:30	17.3	17.3	17.3	77	11.3	0	2	270	0.00	30.261 
23:35	17.2	17.2	17.2	77	11.3	0	2	270	0.00	30.261 
23:40	17.2	17.2	17.2	77	11.3	0	1	270	0.00	30.261 
23:45	16.9	16.9	16.9	77	11.0	0	1	270	0.00	30.265 
23:50	16.7	16.7	16.7	76	10.5	0	2	270	0.00	30.265 
23:55	16.5	16.5	16.5	76	10.3	0	2	270	0.00	30.265 

CoCoRaHS
IN-AL-39
A2 Web Hosting
Creative Commons License
GoDaddy
search engine by freefind advanced

loaded 2018-11-21 01:08:31 • last modified 2010-11-18 10:43:29
Privacy PolicyDisclaimer
• wx.awcolley.com is powered by PmWiki v.2002016 •
• all content (unless otherwise noted) © 2018 A W Colley